createdAt,value
2023-03-30T00:01:11.813Z,19.10
2023-03-30T00:28:24.223Z,17.20
2023-03-30T00:32:08.271Z,21.30
2023-03-30T00:35:32.622Z,16.00
2023-03-30T00:38:30.625Z,16.80
2023-03-30T00:41:01.561Z,15.90
2023-03-30T00:43:28.940Z,17.30
2023-03-30T00:45:57.308Z,19.30
2023-03-30T00:48:31.543Z,20.40
2023-03-30T00:51:10.557Z,17.60
2023-03-30T00:53:42.464Z,16.90
2023-03-30T00:56:13.177Z,17.10
2023-03-30T00:58:41.248Z,16.30
2023-03-30T01:01:10.757Z,19.50
2023-03-30T01:03:47.420Z,20.40
2023-03-30T01:06:21.201Z,16.50
2023-03-30T01:08:48.552Z,14.70
2023-03-30T01:27:03.147Z,14.50
2023-03-30T01:30:02.920Z,15.10
2023-03-30T01:32:56.431Z,19.10
2023-03-30T01:35:40.330Z,17.90
2023-03-30T01:38:15.593Z,19.80
2023-03-30T01:40:53.404Z,15.40
2023-03-30T01:43:38.052Z,15.70
2023-03-30T01:46:19.298Z,14.60
2023-03-30T01:49:06.756Z,15.70
2023-03-30T01:51:46.330Z,13.70
2023-03-30T01:54:23.667Z,13.50
2023-03-30T01:57:09.864Z,18.60
2023-03-30T01:59:44.350Z,16.50
2023-03-30T02:02:18.600Z,12.30
2023-03-30T02:04:48.846Z,16.60
2023-03-30T02:07:59.963Z,18.10
2023-03-30T02:12:06.931Z,15.60
2023-03-30T02:15:50.164Z,15.20
2023-03-30T02:19:48.069Z,14.80
2023-03-30T02:23:23.730Z,12.70
2023-03-30T02:25:52.027Z,12.10
2023-03-30T02:28:20.073Z,12.00
2023-03-30T02:30:48.215Z,14.20
2023-03-30T02:33:50.839Z,12.70
2023-03-30T02:37:00.512Z,16.40
2023-03-30T02:39:43.872Z,12.80
2023-03-30T02:42:24.703Z,10.80
2023-03-30T02:45:09.111Z,10.90
2023-03-30T02:47:55.021Z,13.00
2023-03-30T02:50:51.222Z,14.60
2023-03-30T02:54:01.593Z,11.80
2023-03-30T02:56:52.941Z,15.00
2023-03-30T02:59:27.735Z,14.10
2023-03-30T03:02:04.857Z,15.70
2023-03-30T03:04:35.162Z,10.90
2023-03-30T03:30:18.798Z,8.40
2023-03-30T03:32:54.672Z,10.20
2023-03-30T03:35:25.003Z,10.60
2023-03-30T03:37:53.393Z,11.70
2023-03-30T03:40:21.677Z,11.20
2023-03-30T03:42:49.803Z,8.80
2023-03-30T03:45:18.281Z,11.30
2023-03-30T03:47:53.615Z,11.70
2023-03-30T03:50:38.269Z,9.70
2023-03-30T03:53:06.554Z,13.00
2023-03-30T03:55:35.424Z,13.50
2023-03-30T03:58:05.789Z,11.00
2023-03-30T04:00:34.131Z,12.80
2023-03-30T04:03:05.553Z,11.80
2023-03-30T04:05:33.923Z,13.70
2023-03-30T04:08:41.675Z,13.00
2023-03-30T04:11:49.520Z,9.20
2023-03-30T04:14:31.130Z,12.30
2023-03-30T04:21:16.831Z,12.90
2023-03-30T04:28:22.668Z,8.90
2023-03-30T04:31:23.285Z,9.70
2023-03-30T04:34:12.519Z,13.30
2023-03-30T04:37:08.551Z,10.90
2023-03-30T04:39:50.810Z,15.60
2023-03-30T04:42:38.022Z,9.80
2023-03-30T04:45:23.123Z,15.40
2023-03-30T04:48:20.255Z,12.40
2023-03-30T04:51:04.987Z,10.80
2023-03-30T04:53:59.351Z,11.30
2023-03-30T04:57:02.109Z,11.20
2023-03-30T04:59:38.843Z,12.00
2023-03-30T05:02:27.735Z,8.10
2023-03-30T05:05:12.313Z,10.10
2023-03-30T05:08:03.705Z,9.90
2023-03-30T05:10:52.387Z,12.00
2023-03-30T05:13:41.892Z,11.20
2023-03-30T05:16:30.076Z,13.80
2023-03-30T05:19:11.447Z,13.30
2023-03-30T05:22:01.056Z,12.00
2023-03-30T05:24:48.320Z,10.60
2023-03-30T05:27:34.743Z,10.80
2023-03-30T05:30:34.760Z,9.90
2023-03-30T05:33:22.319Z,11.80
2023-03-30T05:36:19.081Z,12.60
2023-03-30T05:39:15.293Z,11.10
2023-03-30T05:42:13.752Z,12.70
2023-03-30T05:45:02.528Z,14.10
2023-03-30T05:47:49.238Z,17.50
2023-03-30T05:50:48.163Z,15.20
2023-03-30T05:53:35.066Z,14.80
2023-03-30T05:56:27.419Z,14.90
2023-03-30T05:59:18.196Z,11.60
2023-03-30T06:01:59.480Z,13.90
2023-03-30T06:04:28.135Z,16.40
2023-03-30T06:06:56.566Z,13.50
2023-03-30T06:09:27.685Z,12.10
2023-03-30T06:11:57.536Z,16.10
2023-03-30T06:14:26.292Z,10.90
2023-03-30T06:17:35.781Z,14.20
2023-03-30T06:20:11.191Z,14.00
2023-03-30T06:22:43.249Z,14.60
2023-03-30T06:25:15.566Z,19.80
2023-03-30T06:27:50.617Z,11.40
2023-03-30T06:30:18.918Z,14.30
2023-03-30T06:32:56.764Z,11.80
2023-03-30T06:35:26.936Z,11.90
2023-03-30T06:37:59.954Z,11.80
2023-03-30T06:40:30.826Z,11.30
2023-03-30T06:42:59.960Z,15.20
2023-03-30T06:45:58.226Z,16.60
2023-03-30T06:48:31.901Z,16.10
2023-03-30T06:51:50.035Z,16.30
2023-03-30T06:54:26.616Z,15.20
2023-03-30T06:56:58.250Z,16.50
2023-03-30T06:59:27.323Z,15.60
2023-03-30T07:02:16.809Z,16.30
2023-03-30T07:05:01.034Z,20.80
2023-03-30T07:07:39.204Z,18.60
2023-03-30T07:10:10.555Z,17.80
2023-03-30T07:12:41.549Z,18.70
2023-03-30T07:15:15.514Z,14.20
2023-03-30T07:17:44.029Z,12.60
2023-03-30T07:20:15.910Z,13.80
2023-03-30T07:23:03.012Z,14.90
2023-03-30T07:25:32.104Z,12.70
2023-03-30T07:28:09.897Z,11.70
2023-03-30T07:30:40.719Z,13.00
2023-03-30T07:33:15.985Z,14.30
2023-03-30T07:35:47.892Z,10.30
2023-03-30T07:38:22.068Z,9.40
2023-03-30T07:40:53.276Z,9.80
2023-03-30T07:43:25.176Z,9.30
2023-03-30T07:45:58.891Z,9.40
2023-03-30T07:48:32.360Z,7.40
2023-03-30T07:51:07.029Z,11.80
2023-03-30T07:53:41.095Z,8.50
2023-03-30T07:56:19.906Z,8.20
2023-03-30T07:58:50.965Z,9.30
2023-03-30T08:01:19.530Z,8.00
2023-03-30T08:04:26.394Z,11.10
2023-03-30T08:06:57.725Z,11.60
2023-03-30T08:09:27.649Z,9.00
2023-03-30T08:12:00.789Z,9.20
2023-03-30T08:14:30.963Z,7.80
2023-03-30T08:16:59.412Z,10.00
2023-03-30T08:19:29.724Z,8.40
2023-03-30T08:22:02.163Z,13.00
2023-03-30T08:24:33.472Z,7.90
2023-03-30T08:27:02.088Z,5.70
2023-03-30T08:29:31.628Z,6.50
2023-03-30T08:32:22.941Z,8.00
2023-03-30T08:34:51.662Z,9.30
2023-03-30T08:37:20.279Z,7.50
2023-03-30T08:39:48.870Z,7.90
2023-03-30T08:43:00.810Z,9.40
2023-03-30T08:45:42.806Z,9.40
2023-03-30T08:48:22.482Z,9.20
2023-03-30T08:50:58.593Z,9.80
2023-03-30T09:07:13.771Z,6.90
2023-03-30T09:09:49.374Z,7.60
2023-03-30T09:12:37.591Z,6.70
2023-03-30T09:15:39.025Z,9.20
2023-03-30T09:18:17.852Z,7.10
2023-03-30T09:20:51.642Z,6.30
2023-03-30T09:23:19.989Z,6.80
2023-03-30T09:25:54.031Z,8.30
2023-03-30T09:28:42.880Z,6.50
2023-03-30T09:31:21.945Z,6.60
2023-03-30T09:34:25.921Z,6.40
2023-03-30T09:37:21.715Z,6.20
2023-03-30T09:39:52.545Z,7.40
2023-03-30T09:42:47.688Z,10.70
2023-03-30T09:45:27.633Z,8.00
2023-03-30T09:47:55.517Z,4.70
2023-03-30T09:50:29.045Z,10.80
2023-03-30T09:53:01.231Z,7.20
2023-03-30T09:55:36.127Z,5.70
2023-03-30T09:58:19.628Z,8.30
2023-03-30T10:01:01.991Z,7.50
2023-03-30T10:03:33.628Z,4.90
2023-03-30T10:06:23.168Z,8.20
2023-03-30T10:08:56.598Z,10.10
2023-03-30T10:11:51.831Z,13.90
2023-03-30T10:14:34.060Z,9.30
2023-03-30T10:17:04.392Z,7.90
2023-03-30T10:19:38.421Z,8.40
2023-03-30T10:22:17.749Z,9.10
2023-03-30T10:24:55.359Z,6.80
2023-03-30T10:27:34.275Z,7.20
2023-03-30T10:30:12.120Z,6.50
2023-03-30T10:32:46.299Z,7.50
2023-03-30T10:35:23.369Z,10.60
2023-03-30T10:37:55.117Z,10.70
2023-03-30T10:40:39.170Z,8.30
2023-03-30T10:43:18.537Z,9.00
2023-03-30T10:45:53.318Z,7.70
2023-03-30T10:48:37.681Z,6.30
2023-03-30T10:51:26.941Z,11.90
2023-03-30T10:54:14.382Z,7.70
2023-03-30T10:57:00.459Z,9.50
2023-03-30T10:59:40.123Z,7.90
2023-03-30T11:02:46.811Z,12.50
2023-03-30T11:05:26.042Z,9.50
2023-03-30T11:08:12.530Z,10.10
2023-03-30T11:10:48.211Z,12.90
2023-03-30T11:13:25.554Z,14.20
2023-03-30T11:16:01.708Z,12.80
2023-03-30T11:18:54.730Z,9.90
2023-03-30T11:21:51.321Z,13.50
2023-03-30T11:24:21.242Z,10.10
2023-03-30T11:27:11.386Z,13.50
2023-03-30T11:30:02.556Z,9.60
2023-03-30T11:32:37.153Z,10.10
2023-03-30T11:35:29.684Z,9.70
2023-03-30T11:38:24.285Z,9.50
2023-03-30T11:41:12.151Z,6.90
2023-03-30T11:43:43.518Z,12.00
2023-03-30T11:46:23.627Z,10.70
2023-03-30T11:49:08.767Z,20.20
2023-03-30T11:51:58.481Z,14.50
2023-03-30T11:55:01.830Z,8.40
2023-03-30T11:57:36.614Z,8.70
2023-03-30T12:00:23.522Z,11.80
2023-03-30T12:03:20.741Z,8.20
2023-03-30T12:05:56.297Z,7.10
2023-03-30T12:09:28.861Z,5.50
2023-03-30T12:12:41.962Z,7.80
2023-03-30T12:15:35.975Z,10.80
2023-03-30T12:18:44.528Z,7.60
2023-03-30T12:21:52.403Z,5.90
2023-03-30T12:24:35.786Z,7.50
2023-03-30T12:27:06.174Z,6.00
2023-03-30T12:32:26.941Z,7.80
2023-03-30T12:34:59.881Z,9.50
2023-03-30T12:37:35.910Z,6.40
2023-03-30T12:40:12.372Z,8.90
2023-03-30T12:43:05.539Z,8.40
2023-03-30T12:45:34.695Z,5.40
2023-03-30T12:48:05.906Z,7.40
2023-03-30T12:50:56.681Z,7.70
2023-03-30T12:53:44.666Z,7.00
2023-03-30T13:37:50.927Z,9.50
2023-03-30T13:40:41.641Z,6.70
2023-03-30T13:43:25.175Z,8.20
2023-03-30T13:46:30.670Z,11.80
2023-03-30T13:49:37.918Z,8.80
2023-03-30T13:52:15.857Z,9.30
2023-03-30T13:54:43.148Z,13.20
2023-03-30T13:57:13.325Z,7.30
2023-03-30T14:00:04.262Z,12.80
2023-03-30T14:02:38.321Z,8.10
2023-03-30T14:05:25.798Z,6.50
2023-03-30T14:07:56.858Z,9.60
2023-03-30T14:10:24.765Z,11.40
2023-03-30T14:12:56.407Z,11.10
2023-03-30T14:15:38.634Z,12.30
2023-03-30T14:18:10.581Z,8.70
2023-03-30T14:20:46.435Z,13.10
2023-03-30T14:23:34.650Z,9.10
2023-03-30T14:26:13.483Z,10.70
2023-03-30T14:28:43.853Z,10.70
2023-03-30T14:31:18.607Z,9.30
2023-03-30T14:33:45.591Z,11.50
2023-03-30T14:36:28.073Z,7.90
2023-03-30T15:29:24.162Z,10.90
2023-03-30T15:32:35.619Z,13.20
2023-03-30T15:35:27.170Z,9.50
2023-03-30T15:46:14.498Z,10.80
2023-03-30T15:48:46.388Z,8.50
2023-03-30T15:51:19.263Z,9.30
2023-03-30T15:53:55.756Z,10.50
2023-03-30T15:56:46.469Z,12.10
2023-03-30T15:59:20.758Z,11.30
2023-03-30T16:01:52.224Z,10.00
2023-03-30T16:04:21.936Z,14.10
2023-03-30T16:06:49.656Z,12.10
2023-03-30T16:09:16.986Z,14.10
2023-03-30T16:11:45.949Z,14.10
2023-03-30T16:14:16.340Z,12.00
2023-03-30T16:16:43.259Z,14.20
2023-03-30T16:19:11.562Z,13.50
2023-03-30T16:21:39.132Z,13.70
2023-03-30T16:24:10.192Z,11.50
2023-03-30T16:26:37.150Z,11.80
2023-03-30T16:29:04.720Z,14.50
2023-03-30T16:31:34.053Z,11.60
2023-03-30T16:34:00.949Z,11.90
2023-03-30T16:36:28.758Z,15.10
2023-03-30T16:38:55.755Z,13.60
2023-03-30T16:41:25.493Z,19.50
2023-03-30T16:43:52.424Z,10.00
2023-03-30T16:46:20.066Z,13.80
2023-03-30T16:48:47.310Z,14.20
2023-03-30T16:51:17.828Z,15.00
2023-03-30T16:53:44.687Z,13.70
2023-03-30T16:56:18.952Z,15.90
2023-03-30T16:58:48.942Z,15.50
2023-03-30T17:01:18.920Z,14.20
2023-03-30T17:03:46.189Z,15.10
2023-03-30T17:06:13.680Z,21.40
2023-03-30T17:08:42.816Z,14.80
2023-03-30T17:11:10.166Z,15.60
2023-03-30T17:13:37.162Z,13.40
2023-03-30T17:16:10.965Z,12.40
2023-03-30T17:18:43.897Z,15.30
2023-03-30T17:21:15.525Z,14.90
2023-03-30T17:23:46.983Z,13.70
2023-03-30T17:26:13.801Z,13.80
2023-03-30T17:28:42.913Z,12.60
2023-03-30T17:31:20.294Z,11.00
2023-03-30T17:33:50.303Z,14.80
2023-03-30T17:36:37.777Z,15.00
2023-03-30T17:39:14.641Z,10.50
2023-03-30T17:41:50.768Z,15.10
2023-03-30T17:44:28.128Z,18.30
2023-03-30T17:46:55.719Z,11.50
2023-03-30T17:49:22.515Z,12.20
2023-03-30T17:51:53.983Z,15.00
2023-03-30T17:54:28.813Z,14.10
2023-03-30T17:56:56.119Z,11.80
2023-03-30T17:59:23.263Z,13.20
2023-03-30T18:01:52.516Z,14.00
2023-03-30T18:04:19.247Z,12.10
2023-03-30T18:06:48.279Z,13.80
2023-03-30T18:09:17.774Z,17.20
2023-03-30T18:11:47.184Z,12.50
2023-03-30T18:14:14.039Z,13.00
2023-03-30T18:16:42.705Z,12.80
2023-03-30T18:19:10.906Z,15.60
2023-03-30T18:21:40.202Z,15.20
2023-03-30T18:24:09.146Z,15.10
2023-03-30T18:26:40.825Z,16.90
2023-03-30T18:29:24.043Z,12.70
2023-03-30T18:31:50.852Z,11.20
2023-03-30T18:34:20.275Z,10.00
2023-03-30T18:36:50.173Z,13.40
2023-03-30T18:39:19.280Z,12.60
2023-03-30T19:25:00.810Z,6.60
2023-03-30T19:27:27.386Z,10.30
2023-03-30T19:29:54.364Z,9.80
2023-03-30T19:32:24.814Z,11.20
2023-03-30T19:37:22.517Z,11.40
2023-03-30T19:39:49.105Z,9.10
2023-03-30T19:42:20.267Z,7.90
2023-03-30T19:44:49.340Z,7.80
2023-03-30T19:47:16.323Z,8.50
2023-03-30T19:49:43.080Z,13.50
2023-03-30T19:52:10.023Z,13.50
2023-03-30T19:54:41.457Z,8.00
2023-03-30T19:57:11.919Z,12.60
2023-03-30T19:59:39.773Z,9.90
2023-03-30T20:02:06.725Z,10.70
2023-03-30T20:04:33.904Z,10.80
2023-03-30T20:07:01.607Z,12.10
2023-03-30T20:09:28.511Z,11.70
2023-03-30T20:12:00.146Z,12.00
2023-03-30T20:14:27.368Z,12.30
2023-03-30T20:16:54.124Z,11.70
2023-03-30T20:19:29.315Z,13.50
2023-03-30T20:21:58.372Z,14.10
2023-03-30T20:24:25.438Z,14.10
2023-03-30T20:26:59.715Z,13.90
2023-03-30T20:29:39.755Z,14.00
2023-03-30T20:32:59.748Z,13.80
2023-03-30T20:36:35.798Z,15.00
2023-03-30T20:43:02.526Z,19.90
2023-03-30T20:45:31.719Z,19.10
2023-03-30T20:48:05.362Z,16.10
2023-03-30T20:50:33.731Z,17.40
2023-03-30T20:53:01.175Z,15.70
2023-03-30T20:55:27.992Z,15.40
2023-03-30T20:57:54.984Z,17.20
2023-03-30T21:00:27.903Z,16.60
2023-03-30T21:02:55.154Z,16.20
2023-03-30T21:05:22.208Z,14.80
2023-03-30T21:07:49.081Z,15.20
2023-03-30T21:10:17.083Z,15.00
2023-03-30T21:12:43.940Z,15.30
2023-03-30T21:15:11.211Z,15.70
2023-03-30T21:17:38.147Z,18.00
2023-03-30T21:20:08.890Z,15.40
2023-03-30T21:22:35.710Z,17.00
2023-03-30T21:25:02.913Z,15.20
2023-03-30T21:27:30.188Z,15.90
2023-03-30T21:29:59.495Z,15.80
2023-03-30T21:32:26.163Z,17.00
2023-03-30T21:34:55.520Z,17.70
2023-03-30T21:37:22.041Z,18.80
2023-03-30T21:39:48.670Z,20.50
2023-03-30T21:42:20.227Z,18.10
2023-03-30T21:44:47.141Z,23.30
2023-03-30T21:47:16.213Z,19.00
2023-03-30T21:49:45.312Z,18.30
2023-03-30T21:52:17.693Z,16.70
2023-03-30T21:54:51.327Z,11.40
2023-03-30T21:57:18.227Z,16.90
2023-03-30T21:59:47.577Z,15.20
2023-03-30T22:02:17.204Z,16.10
2023-03-30T22:04:44.453Z,15.30
2023-03-30T22:07:11.444Z,16.40
2023-03-30T22:09:42.847Z,15.30
2023-03-30T22:12:53.799Z,14.30
2023-03-30T22:15:22.859Z,14.10
2023-03-30T22:17:49.479Z,15.60
2023-03-30T22:20:16.470Z,16.10
2023-03-30T22:22:55.787Z,14.80
2023-03-30T22:25:30.667Z,14.50
2023-03-30T22:27:57.268Z,14.50
2023-03-30T22:30:24.312Z,14.70
2023-03-30T22:32:53.794Z,19.80
2023-03-30T22:35:22.818Z,14.60
2023-03-30T22:37:52.470Z,16.10
2023-03-30T22:40:19.318Z,16.60
2023-03-30T22:42:46.241Z,13.80
2023-03-30T22:45:15.481Z,18.20
2023-03-30T22:47:42.728Z,14.10
2023-03-30T22:50:09.840Z,16.50
2023-03-30T22:52:36.729Z,18.90
2023-03-30T22:55:04.134Z,12.50
2023-03-30T22:57:31.313Z,15.40
2023-03-30T22:59:58.345Z,13.80
2023-03-30T23:02:25.316Z,17.40
2023-03-30T23:04:54.603Z,14.80
2023-03-30T23:07:21.191Z,16.50
2023-03-30T23:09:50.243Z,13.10
2023-03-30T23:12:16.938Z,15.60
2023-03-30T23:14:43.903Z,14.50
2023-03-30T23:17:11.240Z,14.40
2023-03-30T23:19:38.268Z,17.50
2023-03-30T23:22:05.453Z,13.70
2023-03-30T23:24:32.692Z,13.30
2023-03-30T23:26:59.793Z,15.20
2023-03-30T23:29:26.776Z,11.50
2023-03-30T23:31:53.813Z,11.90
2023-03-30T23:34:22.146Z,10.80
2023-03-30T23:36:50.322Z,10.30
2023-03-30T23:39:57.872Z,9.10
2023-03-30T23:42:27.101Z,8.50
2023-03-30T23:44:57.344Z,7.20
2023-03-30T23:47:24.032Z,7.20
2023-03-30T23:49:50.581Z,8.00
2023-03-30T23:52:17.267Z,10.20
2023-03-30T23:54:51.796Z,8.40
2023-03-30T23:57:19.298Z,7.40
2023-03-30T23:59:46.262Z,9.90
